Time;durP1;ratioP1;P1;durP2;ratioP2;P2;SDS_P1;SDS_P2;PMS_P1;PMS_P2;Temp;Humidity;BMP_temperature;BMP_pressure;BME280_temperature;BME280_humidity;BME280_pressure;Samples;Min_cycle;Max_cycle;Signal;HPM_P1;HPM_P2
2023/10/09 00:03:23;;;;;;;2.30;1.27;;;13.70;89.60;;;;;;4735714;30;20045;-76
2023/10/09 00:05:53;;;;;;;2.47;1.50;;;13.80;89.60;;;;;;4720279;30;20048;-76
2023/10/09 00:08:22;;;;;;;1.60;1.20;;;13.70;89.60;;;;;;4735519;30;20132;-76
2023/10/09 00:10:52;;;;;;;3.45;1.70;;;13.70;90.10;;;;;;4735566;30;22120;-77
2023/10/09 00:13:26;;;;;;;2.88;1.40;;;13.80;89.70;;;;;;4720225;30;20144;-76
2023/10/09 00:15:53;;;;;;;3.17;1.63;;;13.80;89.70;;;;;;4734725;30;20120;-76
2023/10/09 00:18:28;;;;;;;2.72;1.60;;;13.80;89.70;;;;;;4749284;30;20083;-76
2023/10/09 00:20:55;;;;;;;2.88;1.50;;;13.80;89.80;;;;;;4720927;30;20409;-76
2023/10/09 00:23:25;;;;;;;2.88;1.40;;;13.80;89.80;;;;;;4734838;30;20053;-77
2023/10/09 00:26:08;;;;;;;2.13;1.23;;;13.80;89.90;;;;;;4720514;30;20048;-76
2023/10/09 00:28:35;;;;;;;3.25;1.60;;;13.80;90.20;;;;;;4721457;30;20299;-76
2023/10/09 00:31:06;;;;;;;2.42;1.48;;;13.80;89.80;;;;;;4749005;30;20106;-77
2023/10/09 00:33:32;;;;;;;2.65;1.65;;;13.80;89.90;;;;;;4719868;30;20036;-77
2023/10/09 00:36:10;;;;;;;2.63;1.52;;;13.80;90.00;;;;;;4735684;30;20064;-76
2023/10/09 00:38:45;;;;;;;2.80;1.25;;;13.80;90.00;;;;;;4719724;30;20057;-76
2023/10/09 00:41:13;;;;;;;2.88;1.40;;;13.80;90.00;;;;;;4736087;30;20052;-76
2023/10/09 00:43:42;;;;;;;2.13;1.40;;;13.80;90.30;;;;;;4719266;30;20032;-77
2023/10/09 00:46:16;;;;;;;2.03;1.45;;;13.80;90.00;;;;;;4719797;30;20523;-76
2023/10/09 00:48:42;;;;;;;3.47;1.50;;;13.70;90.00;;;;;;4735322;30;20102;-76
2023/10/09 00:51:16;;;;;;;2.40;1.50;;;13.70;90.00;;;;;;4733880;30;20052;-76
2023/10/09 00:53:48;;;;;;;3.70;1.90;;;13.70;90.10;;;;;;4733465;30;20052;-76
2023/10/09 00:56:38;;;;;;;2.20;1.40;;;13.70;90.10;;;;;;4732219;30;20045;-76
2023/10/09 00:59:08;;;;;;;2.50;1.30;;;13.70;90.10;;;;;;4734780;30;20057;-76
2023/10/09 01:01:39;;;;;;;3.50;1.50;;;13.70;90.10;;;;;;4732666;30;20405;-76
2023/10/09 01:04:06;;;;;;;2.90;1.60;;;13.60;90.10;;;;;;4733891;30;20138;-76
2023/10/09 01:06:42;;;;;;;2.33;1.17;;;13.60;90.20;;;;;;4735239;30;20190;-76
2023/10/09 01:09:10;;;;;;;1.77;1.15;;;13.60;90.20;;;;;;4718989;30;20063;-76
2023/10/09 01:11:47;;;;;;;3.45;1.60;;;13.60;90.20;;;;;;4718965;30;20052;-76
2023/10/09 01:14:13;;;;;;;2.92;1.52;;;13.60;90.20;;;;;;4733566;30;20044;-76
2023/10/09 01:16:43;;;;;;;3.08;1.48;;;13.60;90.20;;;;;;4719521;30;20435;-76
2023/10/09 01:19:13;;;;;;;4.10;1.77;;;13.60;90.20;;;;;;4733569;30;20041;-76
2023/10/09 01:21:40;;;;;;;2.60;1.50;;;13.60;90.20;;;;;;4733657;30;20602;-76
2023/10/09 01:24:08;;;;;;;2.85;1.42;;;13.60;90.20;;;;;;4733444;30;20065;-75
2023/10/09 01:26:44;;;;;;;2.28;1.40;;;13.60;90.20;;;;;;4734671;30;20118;-75
2023/10/09 01:29:14;;;;;;;2.35;1.25;;;13.70;90.20;;;;;;4719609;30;20047;-75
2023/10/09 01:31:51;;;;;;;2.92;1.75;;;13.80;90.30;;;;;;4734749;30;20480;-75
2023/10/09 01:34:23;;;;;;;3.15;1.80;;;13.70;90.20;;;;;;4731963;30;20157;-75
2023/10/09 01:36:53;;;;;;;3.42;1.73;;;13.80;90.20;;;;;;4704941;30;20066;-75
2023/10/09 01:39:28;;;;;;;3.03;1.60;;;13.80;90.10;;;;;;4734628;30;20048;-75
2023/10/09 01:41:58;;;;;;;2.85;1.58;;;13.90;90.10;;;;;;4717870;30;20048;-75
2023/10/09 01:44:27;;;;;;;3.30;1.95;;;13.90;90.10;;;;;;4733539;30;20041;-77
2023/10/09 01:46:56;;;;;;;4.32;2.00;;;13.80;90.10;;;;;;4732709;30;20128;-76
2023/10/09 01:49:29;;;;;;;2.53;1.63;;;13.90;90.10;;;;;;4718994;30;20113;-77
2023/10/09 01:51:58;;;;;;;3.60;1.88;;;13.90;90.10;;;;;;4718396;30;20516;-76
2023/10/09 01:54:36;;;;;;;3.72;1.90;;;13.90;90.10;;;;;;4718762;30;20455;-76
2023/10/09 01:57:05;;;;;;;3.78;2.08;;;14.00;90.10;;;;;;4730767;30;20127;-76
2023/10/09 01:59:33;;;;;;;2.88;1.80;;;14.00;90.10;;;;;;4732745;30;20048;-76
2023/10/09 02:02:00;;;;;;;3.72;1.98;;;14.10;90.10;;;;;;4718410;30;20057;-76
2023/10/09 02:04:26;;;;;;;3.28;1.83;;;14.10;90.10;;;;;;4734320;30;20045;-76
2023/10/09 02:06:52;;;;;;;2.97;1.83;;;14.10;90.10;;;;;;4746485;30;20107;-76
2023/10/09 02:09:25;;;;;;;4.10;2.30;;;14.10;90.10;;;;;;4732425;30;20052;-76
2023/10/09 02:11:51;;;;;;;3.97;2.05;;;14.20;90.10;;;;;;4732966;30;20408;-76
2023/10/09 02:14:19;;;;;;;2.28;1.60;;;14.20;90.00;;;;;;4732867;30;20051;-76
2023/10/09 02:17:02;;;;;;;3.08;1.75;;;14.30;90.10;;;;;;4747675;30;21301;-76
2023/10/09 02:19:34;;;;;;;2.78;1.58;;;14.30;90.10;;;;;;4734478;30;20472;-76
2023/10/09 02:22:03;;;;;;;3.22;1.52;;;14.30;90.10;;;;;;4747263;30;20068;-76
2023/10/09 02:27:06;;;;;;;3.95;2.00;;;14.30;90.10;;;;;;4717555;30;20048;-76
2023/10/09 02:29:35;;;;;;;3.25;1.98;;;14.40;90.10;;;;;;4733762;30;20044;-76
2023/10/09 02:32:13;;;;;;;3.38;2.20;;;14.40;90.10;;;;;;4734276;30;20395;-76
2023/10/09 02:34:39;;;;;;;2.45;1.63;;;14.40;90.10;;;;;;4732799;30;20578;-76
2023/10/09 02:37:06;;;;;;;3.65;2.28;;;14.40;90.10;;;;;;4733746;30;20045;-76
2023/10/09 02:39:46;;;;;;;4.00;2.30;;;14.60;90.10;;;;;;4732567;30;20044;-76
2023/10/09 02:42:23;;;;;;;3.05;1.75;;;14.50;90.10;;;;;;4746883;30;20048;-76
2023/10/09 02:44:51;;;;;;;3.47;1.92;;;14.60;90.10;;;;;;4732596;30;20052;-76
2023/10/09 02:47:25;;;;;;;2.88;1.90;;;14.60;90.10;;;;;;4703519;30;20052;-77
2023/10/09 02:49:51;;;;;;;3.75;2.33;;;14.60;90.10;;;;;;4746802;30;20646;-75
2023/10/09 02:52:19;;;;;;;4.30;1.73;;;14.60;90.10;;;;;;4732403;30;20064;-76
2023/10/09 02:54:47;;;;;;;3.10;1.92;;;14.60;90.10;;;;;;4732420;30;20056;-76
2023/10/09 02:57:28;;;;;;;2.95;1.73;;;14.60;90.10;;;;;;4732225;30;20048;-76
2023/10/09 02:59:54;;;;;;;3.35;1.90;;;14.70;90.20;;;;;;4720059;30;20506;-76
2023/10/09 03:02:19;;;;;;;2.95;1.67;;;14.70;90.20;;;;;;4732225;30;20064;-76
2023/10/09 03:04:45;;;;;;;2.45;1.60;;;14.70;90.20;;;;;;4732471;30;20127;-76
2023/10/09 03:07:13;;;;;;;3.97;2.35;;;14.70;90.20;;;;;;4717647;30;20040;-76
2023/10/09 03:09:40;;;;;;;2.45;1.65;;;14.70;90.20;;;;;;4732298;30;20041;-76
2023/10/09 03:12:09;;;;;;;3.38;2.10;;;14.80;90.30;;;;;;4717604;30;20128;-76
2023/10/09 03:14:38;;;;;;;5.35;2.17;;;14.80;90.50;;;;;;4703558;30;21008;-76
2023/10/09 03:17:04;;;;;;;3.22;2.13;;;14.90;90.30;;;;;;4733275;30;20543;-76
2023/10/09 03:19:40;;;;;;;2.58;1.77;;;14.90;90.30;;;;;;4702957;30;20033;-76
2023/10/09 03:22:09;;;;;;;3.40;2.03;;;14.90;90.30;;;;;;4718501;30;20610;-76
2023/10/09 03:24:36;;;;;;;4.47;2.15;;;14.90;90.30;;;;;;4733180;30;20053;-76
2023/10/09 03:27:02;;;;;;;3.60;2.08;;;14.90;90.20;;;;;;4702887;30;20397;-78
2023/10/09 03:29:28;;;;;;;3.00;1.75;;;15.00;90.20;;;;;;4731368;30;20056;-76
2023/10/09 03:31:56;;;;;;;2.33;1.55;;;15.00;90.20;;;;;;4703176;30;20493;-77
2023/10/09 03:34:22;;;;;;;2.25;1.48;;;15.00;90.20;;;;;;4717772;30;20097;-76
2023/10/09 03:36:48;;;;;;;2.90;1.80;;;15.00;90.20;;;;;;4717310;30;20523;-77
2023/10/09 03:42:04;;;;;;;2.15;1.55;;;15.00;90.30;;;;;;4732298;30;20060;-76
2023/10/09 03:44:33;;;;;;;3.22;1.95;;;15.00;90.30;;;;;;4703932;30;20053;-76
2023/10/09 03:46:59;;;;;;;3.53;1.95;;;15.00;90.30;;;;;;4731898;30;20052;-76
2023/10/09 03:49:25;;;;;;;3.38;1.80;;;15.00;90.40;;;;;;4732106;30;20409;-76
2023/10/09 03:51:52;;;;;;;4.25;2.47;;;14.90;90.40;;;;;;4733109;30;20056;-76
2023/10/09 03:54:20;;;;;;;4.07;2.45;;;15.20;90.40;;;;;;4731771;30;20048;-77
2023/10/09 03:56:49;;;;;;;4.35;2.38;;;15.10;90.40;;;;;;4715921;30;20057;-76
2023/10/09 03:59:17;;;;;;;3.63;2.17;;;15.10;90.40;;;;;;4731904;30;20094;-76
2023/10/09 04:01:43;;;;;;;2.95;1.90;;;15.10;90.40;;;;;;4732584;30;20103;-76
2023/10/09 04:04:13;;;;;;;3.63;2.20;;;15.20;90.40;;;;;;4733307;30;20095;-77
2023/10/09 04:06:39;;;;;;;3.40;1.90;;;15.20;90.30;;;;;;4731828;30;20052;-76
2023/10/09 04:09:28;;;;;;;4.13;2.33;;;15.20;90.40;;;;;;4717490;30;20148;-76
2023/10/09 04:14:35;;;;;;;3.60;2.10;;;15.20;90.40;;;;;;4719105;30;20060;-76
2023/10/09 04:17:06;;;;;;;3.25;2.22;;;15.20;90.40;;;;;;4719828;30;20044;-76
2023/10/09 04:19:48;;;;;;;4.40;2.30;;;15.20;90.40;;;;;;4752066;30;20055;-76
2023/10/09 04:22:26;;;;;;;2.85;1.80;;;15.20;90.40;;;;;;4737165;30;20146;-77
2023/10/09 04:24:52;;;;;;;3.35;2.10;;;15.30;90.40;;;;;;4724390;30;20052;-77
2023/10/09 04:27:26;;;;;;;3.65;2.25;;;15.20;90.40;;;;;;4737325;30;20059;-76
2023/10/09 04:29:54;;;;;;;3.53;2.10;;;15.30;90.50;;;;;;4753741;30;20052;-77
2023/10/09 04:32:24;;;;;;;3.53;2.10;;;15.30;90.40;;;;;;4737284;30;20508;-76
2023/10/09 04:34:56;;;;;;;2.47;1.83;;;15.30;90.40;;;;;;4737306;30;20507;-76
2023/10/09 04:37:37;;;;;;;2.63;1.90;;;15.30;90.40;;;;;;4737262;30;20048;-77
2023/10/09 04:42:58;;;;;;;3.30;2.00;;;15.40;90.40;;;;;;4720546;30;20052;-77
2023/10/09 04:48:06;;;;;;;4.22;2.20;;;15.30;90.40;;;;;;4720838;30;20056;-78
2023/10/09 04:50:36;;;;;;;3.08;1.98;;;15.40;90.40;;;;;;4718935;30;20052;-77
2023/10/09 04:55:57;;;;;;;3.08;2.00;;;15.50;90.40;;;;;;4691870;30;20481;-77
2023/10/09 04:58:26;;;;;;;2.67;1.70;;;15.50;90.40;;;;;;4715981;30;20111;-76
2023/10/09 05:01:04;;;;;;;3.05;1.80;;;15.50;90.40;;;;;;4701960;30;20045;-76
2023/10/09 05:08:49;;;;;;;2.33;1.70;;;15.50;90.40;;;;;;4716014;30;20049;-79
2023/10/09 05:11:34;;;;;;;3.58;2.22;;;15.60;90.40;;;;;;4701773;30;20057;-78
2023/10/09 05:16:54;;;;;;;3.47;1.85;;;15.60;90.50;;;;;;4733283;30;20470;-78
2023/10/09 05:22:09;;;;;;;2.97;1.60;;;15.60;90.50;;;;;;4734382;30;19941;-78
2023/10/09 05:24:43;;;;;;;2.78;1.70;;;15.60;90.50;;;;;;4733408;30;20108;-77
2023/10/09 05:29:59;;;;;;;2.55;1.58;;;15.60;90.50;;;;;;4733199;30;20069;-78
2023/10/09 05:32:34;;;;;;;2.97;1.77;;;15.70;90.50;;;;;;4733632;30;20068;-78
2023/10/09 05:35:15;;;;;;;2.40;1.60;;;15.60;90.50;;;;;;4733596;30;20113;-79
2023/10/09 05:37:43;;;;;;;3.47;1.85;;;15.60;90.50;;;;;;4748350;30;20478;-78
2023/10/09 05:42:59;;;;;;;;;;;15.60;90.50;;;;;;4734694;30;20588;-78
2023/10/09 05:51:41;;;;;;;3.35;2.00;;;15.60;90.50;;;;;;4733563;30;20512;-78
2023/10/09 06:04:33;;;;;;;2.07;1.30;;;15.70;90.50;;;;;;4733190;30;20057;-77
2023/10/09 06:07:10;;;;;;;2.70;1.50;;;15.70;90.60;;;;;;4747748;30;20858;-77
2023/10/09 06:09:56;;;;;;;2.67;1.67;;;15.70;90.60;;;;;;4733020;30;20049;-78
2023/10/09 06:17:50;;;;;;;2.13;1.40;;;15.70;90.70;;;;;;4733191;30;20080;-78
2023/10/09 06:22:56;;;;;;;2.20;1.33;;;15.80;90.60;;;;;;4746044;30;19922;-78
2023/10/09 06:25:27;;;;;;;1.58;1.13;;;15.80;90.60;;;;;;4718387;30;20072;-78
2023/10/09 06:27:57;;;;;;;3.80;1.83;;;15.80;90.70;;;;;;4747275;30;20047;-78
2023/10/09 06:30:24;;;;;;;2.95;1.88;;;15.80;90.60;;;;;;4733870;30;20401;-78
2023/10/09 06:32:51;;;;;;;3.28;2.20;;;15.80;90.60;;;;;;4732160;30;20032;-78
2023/10/09 06:35:21;;;;;;;3.33;2.28;;;15.80;90.60;;;;;;4688353;30;20099;-78
2023/10/09 06:43:27;;;;;;;3.70;2.08;;;15.90;90.60;;;;;;4718866;30;20052;-78
2023/10/09 06:45:57;;;;;;;3.17;1.75;;;16.00;90.60;;;;;;4717574;30;20516;-79
2023/10/09 06:51:40;;;;;;;3.25;2.10;;;15.80;90.60;;;;;;4743060;30;20041;-82
2023/10/09 06:54:04;;;;;;;4.70;1.75;;;16.00;90.60;;;;;;4719835;30;20048;-80
2023/10/09 06:57:12;;;;;;;2.08;1.48;;;16.00;90.60;;;;;;4718227;30;20063;-78
2023/10/09 06:59:21;;;;;;;1.92;1.48;;;16.00;90.60;;;;;;4719130;30;20079;-79
2023/10/09 07:07:20;;;;;;;3.63;1.83;;;16.00;90.60;;;;;;4729071;30;20119;-78
2023/10/09 07:12:32;;;;;;;3.03;1.45;;;16.10;90.60;;;;;;4723196;30;20105;-77
2023/10/09 07:16:23;;;;;;;2.70;1.63;;;16.10;90.60;;;;;;4721105;30;20057;-77
2023/10/09 07:17:46;;;;;;;3.33;1.98;;;16.10;90.70;;;;;;4704118;30;20134;-78
2023/10/09 07:20:13;;;;;;;4.25;1.80;;;16.20;90.70;;;;;;4717125;30;20129;-78
2023/10/09 07:23:13;;;;;;;2.15;1.45;;;16.20;90.70;;;;;;4717863;30;20524;-77
2023/10/09 07:25:40;;;;;;;3.53;2.00;;;16.20;90.70;;;;;;4740226;30;20036;-77
2023/10/09 07:28:18;;;;;;;4.53;2.05;;;16.20;90.70;;;;;;4705326;30;20048;-77
2023/10/09 07:30:48;;;;;;;2.78;1.85;;;16.30;90.70;;;;;;4636031;30;20058;-76
2023/10/09 07:33:18;;;;;;;2.83;1.90;;;16.30;90.70;;;;;;4629972;30;20148;-78
2023/10/09 07:35:47;;;;;;;3.70;2.00;;;16.20;90.60;;;;;;4628170;30;20054;-77
2023/10/09 07:38:23;;;;;;;2.67;1.70;;;16.40;90.70;;;;;;4629046;30;20054;-76
2023/10/09 07:40:55;;;;;;;3.50;2.08;;;16.30;90.60;;;;;;4629051;30;20052;-77
2023/10/09 07:43:27;;;;;;;4.15;2.28;;;16.40;90.70;;;;;;4629336;30;20054;-78
2023/10/09 07:49:00;;;;;;;4.72;2.50;;;16.40;90.60;;;;;;4663973;30;20050;-76
2023/10/09 07:51:34;;;;;;;5.80;2.45;;;16.40;90.60;;;;;;4646896;30;20141;-76
2023/10/09 07:54:09;;;;;;;6.82;2.67;;;16.50;90.60;;;;;;4662795;30;20050;-77
2023/10/09 07:59:18;;;;;;;6.40;2.40;;;16.50;90.60;;;;;;4664847;30;20094;-77
2023/10/09 08:01:52;;;;;;;4.78;2.53;;;16.50;90.60;;;;;;4677982;30;20080;-78
2023/10/09 08:04:37;;;;;;;3.05;2.00;;;16.50;90.60;;;;;;4703103;30;20621;-80
2023/10/09 08:07:19;;;;;;;3.03;1.80;;;16.60;90.70;;;;;;4706959;30;20049;-81
2023/10/09 08:09:48;;;;;;;2.63;1.77;;;16.60;90.60;;;;;;4723456;30;20488;-79
2023/10/09 08:17:53;;;;;;;3.08;1.90;;;16.70;90.60;;;;;;4685450;30;20034;-76
2023/10/09 08:20:25;;;;;;;3.28;1.98;;;16.70;90.60;;;;;;4683990;30;20042;-79
2023/10/09 08:22:55;;;;;;;4.03;1.95;;;16.80;90.60;;;;;;4654569;30;20116;-77
2023/10/09 08:25:57;;;;;;;4.63;2.70;;;16.80;90.50;;;;;;4653186;30;20042;-77
2023/10/09 08:28:42;;;;;;;2.83;1.73;;;17.00;90.50;;;;;;4668936;30;20593;-76
2023/10/09 08:36:08;;;;;;;3.22;1.90;;;17.00;90.40;;;;;;4667445;30;20050;-77
2023/10/09 08:38:37;;;;;;;2.83;1.80;;;17.10;90.40;;;;;;4639028;30;20118;-76
2023/10/09 08:41:18;;;;;;;4.72;1.92;;;17.10;90.40;;;;;;4681250;30;20498;-76
2023/10/09 08:43:53;;;;;;;3.70;1.83;;;17.20;90.40;;;;;;4717931;30;20389;-75
2023/10/09 08:46:26;;;;;;;5.45;2.15;;;17.20;90.40;;;;;;4733621;30;20080;-75
2023/10/09 08:48:55;;;;;;;3.58;2.10;;;17.30;90.40;;;;;;4742711;30;20135;-76
2023/10/09 08:51:23;;;;;;;4.90;2.47;;;17.40;90.40;;;;;;4718312;30;20135;-77
2023/10/09 08:53:49;;;;;;;3.25;2.03;;;17.40;90.30;;;;;;4723138;30;20463;-76
2023/10/09 08:56:22;;;;;;;5.32;2.20;;;17.40;90.30;;;;;;4734691;30;20079;-76
2023/10/09 08:58:51;;;;;;;2.28;1.60;;;17.50;90.30;;;;;;4734417;30;20044;-76
2023/10/09 09:01:21;;;;;;;4.25;2.33;;;17.50;90.30;;;;;;4735644;30;20060;-76
2023/10/09 09:03:50;;;;;;;3.80;2.10;;;17.70;90.30;;;;;;4733929;30;20033;-77
2023/10/09 09:06:19;;;;;;;3.55;1.88;;;17.70;90.30;;;;;;4720476;30;20052;-77
2023/10/09 09:08:46;;;;;;;3.08;1.80;;;17.70;90.20;;;;;;4684048;30;20049;-77
2023/10/09 09:11:17;;;;;;;3.38;2.03;;;17.70;90.20;;;;;;4684316;30;20394;-75
2023/10/09 09:13:48;;;;;;;2.70;1.73;;;17.80;90.20;;;;;;4683801;30;20065;-77
2023/10/09 09:16:17;;;;;;;3.38;2.08;;;17.90;90.20;;;;;;4684069;30;20053;-76
2023/10/09 09:18:56;;;;;;;2.72;1.70;;;17.90;90.10;;;;;;4699968;30;20060;-76
2023/10/09 09:21:22;;;;;;;3.53;1.55;;;18.00;90.10;;;;;;4698898;30;20131;-75
2023/10/09 09:23:59;;;;;;;5.10;2.40;;;17.90;90.10;;;;;;4684573;30;20482;-76
2023/10/09 09:26:36;;;;;;;3.72;2.08;;;18.10;90.10;;;;;;4685935;30;20076;-77
2023/10/09 09:29:03;;;;;;;3.67;1.90;;;18.10;90.10;;;;;;4684644;30;20058;-76
2023/10/09 09:31:37;;;;;;;3.08;1.77;;;18.10;90.10;;;;;;4684787;30;20043;-77
2023/10/09 09:34:41;;;;;;;3.80;2.10;;;18.20;90.40;;;;;;4683604;30;20046;-75
2023/10/09 09:36:54;;;;;;;5.15;2.13;;;18.20;90.10;;;;;;4698217;30;20084;-75
2023/10/09 09:39:29;;;;;;;4.63;2.50;;;18.30;90.10;;;;;;4698850;30;20048;-75
2023/10/09 09:41:57;;;;;;;3.13;1.98;;;18.20;90.00;;;;;;4719339;30;20083;-76
2023/10/09 09:44:30;;;;;;;3.28;2.03;;;18.30;90.00;;;;;;4717620;30;20061;-75
2023/10/09 09:46:59;;;;;;;5.10;2.70;;;18.30;90.00;;;;;;4747657;30;20048;-76
2023/10/09 09:49:31;;;;;;;4.28;2.30;;;18.40;90.00;;;;;;4733800;30;20067;-76
2023/10/09 09:52:01;;;;;;;5.10;2.42;;;18.50;90.00;;;;;;4734119;30;20041;-74
2023/10/09 09:54:28;;;;;;;3.60;2.20;;;18.50;90.00;;;;;;4733029;30;20045;-76
2023/10/09 09:56:55;;;;;;;3.40;2.30;;;18.60;90.00;;;;;;4734406;30;20798;-76
2023/10/09 09:59:29;;;;;;;2.80;1.90;;;18.60;89.90;;;;;;4718414;30;20040;-76
2023/10/09 10:02:06;;;;;;;2.50;1.52;;;18.70;89.90;;;;;;4733070;30;20145;-76
2023/10/09 10:04:35;;;;;;;3.65;2.03;;;18.70;89.80;;;;;;4749368;30;20045;-77
2023/10/09 10:07:09;;;;;;;3.85;2.25;;;18.70;89.60;;;;;;4737240;30;20040;-78
2023/10/09 10:09:45;;;;;;;3.80;2.00;;;18.80;89.60;;;;;;4733763;30;20056;-78
2023/10/09 10:12:14;;;;;;;4.03;2.35;;;18.90;89.60;;;;;;4690945;30;20053;-76
2023/10/09 10:14:58;;;;;;;3.45;2.00;;;18.90;90.00;;;;;;4702634;30;20045;-78
2023/10/09 10:17:27;;;;;;;3.25;2.00;;;19.00;89.50;;;;;;4687656;30;20108;-77
2023/10/09 10:20:26;;;;;;;3.67;1.65;;;19.10;89.50;;;;;;4702578;30;20049;-77
2023/10/09 10:23:17;;;;;;;4.50;1.90;;;19.10;89.40;;;;;;4715267;30;20122;-79
2023/10/09 10:25:48;;;;;;;2.83;1.80;;;19.10;89.20;;;;;;4689407;30;20049;-76
2023/10/09 10:28:51;;;;;;;4.13;2.20;;;19.20;89.30;;;;;;4701997;30;21295;-76
2023/10/09 10:31:04;;;;;;;3.67;1.98;;;19.20;89.20;;;;;;4714743;30;20136;-76
2023/10/09 10:34:06;;;;;;;4.03;2.00;;;19.30;89.20;;;;;;4701017;30;20053;-76
2023/10/09 10:36:34;;;;;;;3.75;1.83;;;19.30;89.20;;;;;;4700725;30;20064;-76
2023/10/09 10:39:08;;;;;;;2.28;1.63;;;19.30;89.10;;;;;;4699940;30;20052;-76
2023/10/09 10:41:50;;;;;;;6.30;2.45;;;19.40;89.10;;;;;;4719636;30;20045;-78
2023/10/09 10:49:50;;;;;;;4.18;1.85;;;19.50;88.90;;;;;;4735362;30;20068;-76
2023/10/09 11:03:19;;;;;;;3.75;2.10;;;19.60;88.70;;;;;;4733617;30;20037;-75
2023/10/09 11:05:50;;;;;;;3.72;1.80;;;19.70;88.70;;;;;;4749637;30;21045;-75
2023/10/09 11:08:22;;;;;;;3.50;2.00;;;19.70;88.60;;;;;;4718427;30;20131;-75
2023/10/09 11:10:50;;;;;;;4.63;2.00;;;19.80;88.50;;;;;;4732663;30;20044;-76
2023/10/09 11:13:32;;;;;;;3.47;1.73;;;19.80;88.40;;;;;;4736347;30;20060;-76
2023/10/09 11:18:46;;;;;;;2.80;1.73;;;19.90;88.10;;;;;;4730019;30;20148;-76
2023/10/09 11:23:58;;;;;;;4.15;2.00;;;19.90;88.10;;;;;;4733485;30;20042;-74
2023/10/09 11:26:26;;;;;;;3.58;1.98;;;20.00;87.90;;;;;;4733458;30;20452;-76
2023/10/09 11:29:16;;;;;;;3.05;2.03;;;20.00;88.00;;;;;;4736329;30;20072;-76
2023/10/09 11:31:56;;;;;;;3.33;1.70;;;20.00;87.80;;;;;;4736412;30;20477;-77
2023/10/09 11:34:29;;;;;;;2.63;1.63;;;20.10;87.90;;;;;;4749947;30;20056;-76
2023/10/09 11:36:57;;;;;;;3.53;2.00;;;20.00;87.70;;;;;;4724289;30;20512;-76
2023/10/09 11:39:32;;;;;;;3.95;1.80;;;20.20;87.80;;;;;;4752411;30;20043;-76
2023/10/09 11:42:06;;;;;;;3.80;2.00;;;20.20;87.60;;;;;;4734789;30;20146;-76
2023/10/09 11:44:44;;;;;;;3.63;1.90;;;20.20;87.50;;;;;;4736273;30;20060;-77
2023/10/09 11:52:35;;;;;;;3.65;1.80;;;20.50;87.40;;;;;;4735945;30;20060;-77
2023/10/09 11:55:03;;;;;;;4.23;1.70;;;20.40;87.10;;;;;;4734638;30;20053;-76
2023/10/09 11:57:33;;;;;;;3.33;1.73;;;20.60;87.10;;;;;;4734142;30;20271;-76
2023/10/09 12:00:00;;;;;;;3.58;1.73;;;20.70;87.10;;;;;;4703767;30;20131;-76
2023/10/09 12:02:26;;;;;;;4.43;1.70;;;20.70;87.00;;;;;;4719445;30;20045;-76
2023/10/09 12:04:55;;;;;;;3.60;1.60;;;20.70;86.90;;;;;;4734313;30;20043;-76
2023/10/09 12:07:22;;;;;;;3.63;1.67;;;20.70;86.80;;;;;;4719212;30;20075;-75
2023/10/09 12:09:48;;;;;;;4.53;1.80;;;20.70;86.90;;;;;;4719344;30;20063;-75
2023/10/09 12:12:14;;;;;;;4.20;1.65;;;20.70;86.90;;;;;;4698736;30;20045;-75
2023/10/09 12:14:40;;;;;;;3.15;1.85;;;20.70;87.00;;;;;;4698947;30;20510;-76
2023/10/09 12:17:07;;;;;;;2.45;1.58;;;20.70;87.00;;;;;;4698490;30;20053;-75
2023/10/09 12:19:37;;;;;;;3.97;1.70;;;20.70;86.80;;;;;;4698738;30;20041;-75
2023/10/09 12:22:10;;;;;;;3.73;1.70;;;20.70;86.70;;;;;;4698305;30;20045;-76
2023/10/09 12:24:38;;;;;;;3.22;1.92;;;20.70;86.60;;;;;;4698814;30;20304;-75
2023/10/09 12:27:10;;;;;;;2.85;1.70;;;20.70;86.70;;;;;;4698777;30;20056;-75
2023/10/09 12:29:37;;;;;;;2.75;1.58;;;20.70;86.70;;;;;;4699154;30;20199;-74
2023/10/09 12:32:03;;;;;;;2.63;1.58;;;20.80;86.80;;;;;;4675785;30;20145;-74
2023/10/09 12:34:30;;;;;;;2.22;1.50;;;20.80;86.80;;;;;;4681481;30;20042;-74
2023/10/09 12:37:01;;;;;;;3.80;1.58;;;20.80;86.70;;;;;;4665672;30;20086;-75
2023/10/09 12:39:33;;;;;;;3.33;1.60;;;20.80;86.60;;;;;;4666513;30;20445;-75
2023/10/09 12:42:06;;;;;;;3.33;1.70;;;20.80;86.50;;;;;;4663945;30;20501;-74
2023/10/09 12:44:38;;;;;;;2.50;1.50;;;20.80;86.50;;;;;;4685000;30;20132;-74
2023/10/09 12:47:06;;;;;;;3.55;1.75;;;20.80;86.40;;;;;;4684605;30;20041;-76
2023/10/09 12:49:32;;;;;;;3.17;1.50;;;20.80;86.30;;;;;;4684664;30;20045;-75
2023/10/09 12:51:58;;;;;;;3.25;1.70;;;20.90;86.30;;;;;;4698345;30;20046;-76
2023/10/09 12:54:27;;;;;;;2.83;1.50;;;20.80;86.20;;;;;;4714615;30;20466;-76
2023/10/09 12:56:54;;;;;;;3.97;1.60;;;20.70;86.20;;;;;;4701838;30;20063;-76
2023/10/09 12:59:20;;;;;;;3.03;1.73;;;20.80;86.30;;;;;;4704853;30;20056;-77
2023/10/09 13:01:51;;;;;;;2.40;1.33;;;20.70;86.30;;;;;;4702415;30;20057;-76
2023/10/09 13:04:31;;;;;;;4.47;1.58;;;20.70;86.50;;;;;;4703124;30;20083;-77
2023/10/09 13:07:04;;;;;;;1.33;1.02;;;20.70;86.50;;;;;;4702807;30;20167;-79
2023/10/09 13:09:35;;;;;;;3.15;1.73;;;20.70;86.50;;;;;;4718185;30;20061;-77
2023/10/09 13:12:01;;;;;;;2.65;1.52;;;20.70;86.50;;;;;;4708650;30;20052;-77
2023/10/09 13:14:27;;;;;;;2.85;1.55;;;20.70;86.50;;;;;;4739792;30;20072;-75
2023/10/09 13:16:54;;;;;;;2.83;1.50;;;20.70;86.30;;;;;;4733412;30;20121;-74
2023/10/09 13:19:24;;;;;;;3.17;1.65;;;20.70;86.30;;;;;;4734733;30;20590;-74
2023/10/09 13:21:50;;;;;;;3.20;1.40;;;20.70;86.20;;;;;;4734963;30;20041;-76
2023/10/09 13:24:15;;;;;;;2.20;1.35;;;20.80;86.30;;;;;;4736067;30;20037;-75
2023/10/09 13:26:45;;;;;;;2.95;1.40;;;20.70;86.20;;;;;;4733090;30;20508;-75
2023/10/09 13:29:11;;;;;;;1.95;1.30;;;20.70;86.30;;;;;;4734325;30;20044;-78
2023/10/09 13:31:38;;;;;;;2.30;1.20;;;20.70;86.30;;;;;;4720792;30;20131;-76
2023/10/09 13:34:09;;;;;;;2.20;1.42;;;20.70;86.30;;;;;;4732111;30;20123;-77
2023/10/09 13:36:37;;;;;;;2.45;1.35;;;20.60;86.30;;;;;;4735472;30;20139;-77
2023/10/09 13:41:42;;;;;;;1.67;1.20;;;20.60;86.50;;;;;;4733333;30;20037;-75
2023/10/09 13:44:09;;;;;;;1.40;1.10;;;20.60;86.50;;;;;;4718635;30;20119;-75
2023/10/09 13:46:41;;;;;;;3.92;1.40;;;20.60;86.50;;;;;;4734155;30;20527;-75
2023/10/09 13:49:12;;;;;;;2.47;1.40;;;20.60;86.40;;;;;;4718822;30;20378;-75
2023/10/09 13:51:43;;;;;;;2.78;1.30;;;20.50;86.40;;;;;;4703708;30;20139;-74
2023/10/09 13:54:10;;;;;;;2.55;1.40;;;20.50;86.30;;;;;;4734064;30;20049;-75
2023/10/09 13:56:39;;;;;;;2.58;1.30;;;20.50;86.30;;;;;;4734451;30;20060;-75
2023/10/09 13:59:11;;;;;;;2.63;1.40;;;20.50;86.30;;;;;;4721910;30;20036;-75
2023/10/09 14:01:38;;;;;;;2.53;1.42;;;20.50;86.80;;;;;;4752132;30;20873;-76
2023/10/09 14:04:07;;;;;;;2.08;1.25;;;20.50;86.50;;;;;;4736118;30;20085;-76
2023/10/09 14:06:33;;;;;;;2.80;1.50;;;20.50;86.40;;;;;;4750626;30;20055;-76
2023/10/09 14:09:04;;;;;;;2.10;1.50;;;20.50;86.40;;;;;;4750896;30;20070;-74
2023/10/09 14:11:31;;;;;;;1.83;1.10;;;20.50;86.40;;;;;;4751744;30;20123;-74
2023/10/09 14:14:00;;;;;;;2.47;1.50;;;20.40;86.40;;;;;;4743928;30;20041;-79
2023/10/09 14:16:27;;;;;;;2.38;1.38;;;20.40;86.30;;;;;;4731995;30;20068;-77
2023/10/09 14:18:57;;;;;;;1.60;1.20;;;20.50;86.20;;;;;;4716957;30;20064;-76
2023/10/09 14:21:25;;;;;;;2.90;1.52;;;20.50;86.20;;;;;;4731844;30;20524;-77
2023/10/09 14:23:57;;;;;;;1.50;1.13;;;20.50;86.20;;;;;;4731721;30;20051;-77
2023/10/09 14:26:25;;;;;;;1.95;1.15;;;20.50;86.20;;;;;;4724757;30;20087;-77
2023/10/09 14:28:52;;;;;;;1.67;1.15;;;20.50;86.20;;;;;;4732612;30;20052;-76
2023/10/09 14:31:26;;;;;;;1.77;1.33;;;20.50;86.30;;;;;;4747611;30;20113;-76
2023/10/09 14:33:53;;;;;;;1.65;1.10;;;20.50;86.20;;;;;;4730287;30;20106;-77
2023/10/09 14:36:21;;;;;;;1.63;1.17;;;20.40;86.20;;;;;;4727074;30;20076;-77
2023/10/09 14:38:52;;;;;;;3.05;1.30;;;20.50;86.20;;;;;;4738319;30;20114;-75
2023/10/09 14:41:21;;;;;;;3.95;1.60;;;20.40;86.20;;;;;;4731885;30;20037;-76
2023/10/09 14:43:48;;;;;;;1.70;1.38;;;20.30;86.20;;;;;;4731979;30;20041;-75
2023/10/09 14:46:15;;;;;;;2.63;1.30;;;20.40;86.30;;;;;;4730707;30;20148;-75
2023/10/09 14:48:45;;;;;;;1.70;1.17;;;20.30;86.80;;;;;;4730983;30;20045;-75
2023/10/09 14:51:13;;;;;;;2.08;1.15;;;20.30;86.30;;;;;;4704670;30;20523;-75
2023/10/09 14:53:40;;;;;;;1.48;1.20;;;20.30;86.30;;;;;;4717915;30;20045;-75
2023/10/09 14:56:09;;;;;;;1.40;1.20;;;20.30;86.30;;;;;;4732261;30;20089;-75
2023/10/09 14:58:35;;;;;;;1.10;1.00;;;20.30;86.30;;;;;;4733564;30;20049;-75
2023/10/09 15:01:10;;;;;;;2.47;1.40;;;20.30;86.40;;;;;;4749620;30;20047;-75
2023/10/09 15:03:38;;;;;;;3.83;1.48;;;20.30;86.40;;;;;;4749648;30;20416;-76
2023/10/09 15:06:08;;;;;;;1.80;1.17;;;20.20;86.40;;;;;;4719184;30;20044;-76
2023/10/09 15:08:35;;;;;;;1.80;1.15;;;20.30;86.50;;;;;;4732389;30;20053;-75
2023/10/09 15:11:00;;;;;;;3.03;1.40;;;20.30;86.40;;;;;;4717738;30;20036;-75